Nissos Mykonos — SYJZ — position and weather

sailwx.info

Track history (hours):
 
Tides and Currents Weather Stations Pressure Air Temp Water Temp Dewpoint Dewpoint Depression Visibility Wind Speed Wind Dir Waves Ship Positions

Nissos Mykonos

Last reported at 2016-May-04 21:18 UTC. Time now 2016-May-05 02:48 UTC.
Position N 40°03' E 024°54'.

Length 141 m; draft 5.2 m.

Type: Passenger vessel. MMSI: 240389000.

Date/timePositionNaut miles runAvg speedWind from/ knotsBaromVisibWave heightAir tempDewpointWater temp
2016-May-04 21:18N 40°03' E 024°54'1621.5
2016-May-04 20:33N 40°17' E 024°43'2121.5
2016-May-04 19:34N 40°36' E 024°30'2019.9
2016-May-04 18:33N 40°56' E 024°25'0 0.0
2016-May-04 17:33N 40°56' E 024°25'0 0.0
2016-May-04 16:34N 40°56' E 024°25'7 6.5
2016-May-04 15:34N 40°49' E 024°26'2323.5
2016-May-04 14:34N 40°27' E 024°36'2624.0
2016-May-04 13:29N 40°05' E 024°53'161 9.0
2016-May-03 19:33N 37°29' E 025°40'1717.5
2016-May-03 18:33N 37°28' E 025°19'1211.7
2016-May-03 17:34N 37°27' E 025°04'1212.3
2016-May-03 16:33N 37°32' E 024°49'4220.8
2016-May-03 14:33N 37°34' E 023°57'2020.4
2016-May-03 13:34N 37°48' E 023°38'9 8.3
2016-May-03 12:31N 37°57' E 023°38'0 0.0
2016-May-03 11:32N 37°57' E 023°38'0 0.0
2016-May-03 10:32N 37°57' E 023°38'0 0.0
2016-May-03 09:33N 37°57' E 023°38'0 0.0
2016-May-03 08:31N 37°57' E 023°38'0 0.0
2016-May-03 07:31N 37°57' E 023°38'0 0.0
2016-May-03 06:32N 37°57' E 023°38'0 0.0
2016-May-03 05:33N 37°57' E 023°38'0 0.0
2016-May-03 04:33N 37°57' E 023°38'0 0.0
2016-May-03 03:31N 37°57' E 023°38'0 0.0
2016-May-03 02:32N 37°57' E 023°38'0 0.0
2016-May-03 01:32N 37°57' E 023°38'0 0.0
2016-May-03 00:33N 37°57' E 023°38'0 0.0
2016-May-02 23:31N 37°57' E 023°38'0 0.0
2016-May-02 22:31N 37°57' E 023°38'0 0.0
2016-May-02 21:32N 37°57' E 023°38'0 0.0
2016-May-02 20:33N 37°57' E 023°38'1514.6
2016-May-02 19:33N 37°43' E 023°45'2423.8
2016-May-02 18:33N 37°33' E 024°11'2623.8
2016-May-02 17:28N 37°31' E 024°44'1212.2
2016-May-02 16:29N 37°26' E 024°58'1717.6
2016-May-02 15:30N 37°28' E 025°19'1415.0
2016-May-02 14:33N 37°34' E 025°36'148 8.2
2016-May-01 20:33N 39°58' E 024°57'2121.3
2016-May-01 19:33N 40°17' E 024°43'2221.6
2016-May-01 18:33N 40°36' E 024°30'2016.6
2016-May-01 17:20N 40°56' E 024°25'0 0.0
2016-May-01 15:18N 40°56' E 024°25'0 0.0
2016-May-01 14:31N 40°56' E 024°25'0 0.0
2016-May-01 13:31N 40°56' E 024°25'0 0.0
2016-May-01 12:32N 40°56' E 024°25'0 0.0
2016-May-01 11:33N 40°56' E 024°25'0 0.0
2016-May-01 10:33N 40°56' E 024°25'0 0.0
2016-May-01 09:28N 40°56' E 024°25'0 0.0
2016-May-01 08:29N 40°56' E 024°25'0 0.0
2016-May-01 07:29N 40°56' E 024°25'0 0.0
2016-Apr-30 23:05N 40°56' E 024°25'0 0.0
2016-Apr-30 22:32N 40°56' E 024°25'0 0.0
2016-Apr-30 21:33N 40°56' E 024°25'0 0.0
2016-Apr-30 20:28N 40°56' E 024°25'0 0.0
2016-Apr-30 19:23N 40°56' E 024°25'0 0.0
2016-Apr-30 18:29N 40°56' E 024°25'0 0.0
2016-Apr-30 16:32N 40°56' E 024°25'0 0.0
2016-Apr-30 15:33N 40°56' E 024°25'2120.7
2016-Apr-30 14:34N 40°36' E 024°30'2424.4
2016-Apr-30 13:33N 40°14' E 024°45'167 9.7
2016-Apr-29 20:24N 37°39' E 026°02'1821.4
2016-Apr-29 19:33N 37°34' E 025°39'1817.8
2016-Apr-29 18:33N 37°27' E 025°19'1615.6
2016-Apr-29 17:33N 37°26' E 024°60'9 9.3
2016-Apr-29 16:33N 37°32' E 024°50'4220.7
2016-Apr-29 14:31N 37°36' E 023°57'1919.7
2016-Apr-29 13:34N 37°48' E 023°38'9 9.0
2016-Apr-29 12:33N 37°57' E 023°38'0 0.0
2016-Apr-29 11:33N 37°57' E 023°38'3 2.9
2016-Apr-29 10:33N 37°54' E 023°38'2323.1
2016-Apr-29 09:34N 37°37' E 023°58'4823.8
2016-Apr-29 07:33N 37°29' E 024°57'1515.1
2016-Apr-29 06:33N 37°28' E 025°16'1717.0
2016-Apr-29 05:33N 37°34' E 025°36'2424.4
2016-Apr-29 04:33N 37°39' E 026°06'17 2.3
2016-Apr-28 21:12N 37°44' E 026°27'1413.1
2016-Apr-28 20:07N 37°39' E 026°10'1424.2
2016-Apr-28 19:33N 37°37' E 025°53'2424.4
2016-Apr-28 18:33N 37°31' E 025°23'1313.1
2016-Apr-28 17:34N 37°27' E 025°08'1512.5
2016-Apr-28 16:21N 37°32' E 024°49'4323.5
2016-Apr-28 14:32N 37°36' E 023°56'2121.6
2016-Apr-28 13:34N 37°51' E 023°37'6 5.6
2016-Apr-28 12:33N 37°57' E 023°38'0 0.0
2016-Apr-28 11:33N 37°57' E 023°38'0 0.0
2016-Apr-28 10:33N 37°57' E 023°38'0 0.0
2016-Apr-28 09:33N 37°57' E 023°38'0 0.0
2016-Apr-28 08:33N 37°57' E 023°38'0 0.0
2016-Apr-28 07:33N 37°57' E 023°38'0 0.0
2016-Apr-28 06:33N 37°57' E 023°38'0 0.0
2016-Apr-28 05:33N 37°57' E 023°38'0 0.0
2016-Apr-28 04:33N 37°57' E 023°38'0 0.0
2016-Apr-28 03:33N 37°57' E 023°38'0 0.0
2016-Apr-28 02:33N 37°57' E 023°38'0 0.0
2016-Apr-28 01:33N 37°57' E 023°38'0 0.0
2016-Apr-28 00:33N 37°57' E 023°38'0 0.0
2016-Apr-27 23:33N 37°57' E 023°38'0 0.0
2016-Apr-27 22:33N 37°57' E 023°38'0 0.0
2016-Apr-27 21:33N 37°57' E 023°38'0 0.0
2016-Apr-27 20:33N 37°57' E 023°38'1211.6
2016-Apr-27 19:34N 37°46' E 023°43'2423.3
2016-Apr-27 18:31N 37°33' E 024°09'2324.0
2016-Apr-27 17:33N 37°31' E 024°38'1613.9
2016-Apr-27 16:23N 37°26' E 024°58'1720.9
2016-Apr-27 15:33N 37°28' E 025°19'1212.2
2016-Apr-27 14:33N 37°30' E 025°35'155 9.0
2016-Apr-26 21:22N 40°02' E 024°54'1721.0
2016-Apr-26 20:33N 40°17' E 024°44'2321.4
2016-Apr-26 19:28N 40°38' E 024°30'1920.7
2016-Apr-26 18:33N 40°56' E 024°24'0 0.1
2016-Apr-26 17:27N 40°56' E 024°25'0 0.0
2016-Apr-26 16:33N 40°56' E 024°25'0 0.0
2016-Apr-26 15:33N 40°56' E 024°25'1919.3
2016-Apr-26 14:34N 40°37' E 024°28'2221.8
2016-Apr-26 13:33N 40°17' E 024°42'17710.1
2016-Apr-25 20:04N 37°30' E 025°55'1224.0
2016-Apr-25 19:33N 37°31' E 025°40'1716.7
2016-Apr-25 18:34N 37°28' E 025°19'1717.3
2016-Apr-25 17:33N 37°26' E 024°58'1111.0
2016-Apr-25 16:34N 37°32' E 024°46'4220.7
2016-Apr-25 14:33N 37°37' E 023°54'1918.8
2016-Apr-25 13:34N 37°51' E 023°37'6 5.9
2016-Apr-25 12:33N 37°57' E 023°38'0 0.0
2016-Apr-25 11:33N 37°57' E 023°38'0 0.0
2016-Apr-25 10:33N 37°57' E 023°38'0 0.0
2016-Apr-25 09:33N 37°57' E 023°38'0 0.0
2016-Apr-25 08:33N 37°57' E 023°38'0 0.0
2016-Apr-25 07:33N 37°57' E 023°38'0 0.0
2016-Apr-25 06:32N 37°57' E 023°38'0 0.0
2016-Apr-25 05:17N 37°57' E 023°38'0 0.0
2016-Apr-25 04:33N 37°57' E 023°38'0 0.0
2016-Apr-25 03:33N 37°57' E 023°38'0 0.0
2016-Apr-25 02:33N 37°57' E 023°38'0 0.0
2016-Apr-25 01:33N 37°57' E 023°38'0 0.0
2016-Apr-25 00:33N 37°57' E 023°38'0 0.0
2016-Apr-24 23:33N 37°57' E 023°38'0 0.0
2016-Apr-24 22:33N 37°57' E 023°38'0 0.0
2016-Apr-24 21:33N 37°57' E 023°38'  
Track history (hours):
 
Tides and Currents Weather Stations Pressure Air Temp Water Temp Dewpoint Dewpoint Depression Visibility Wind Speed Wind Dir Waves Ship Positions

Nissos Mykonos

Last reported at 2016-May-04 21:18 UTC. Time now 2016-May-05 02:48 UTC.
Position N 40°03' E 024°54'.

Length 141 m; draft 5.2 m.

Type: Passenger vessel. MMSI: 240389000.

Date/timePositionNaut miles runAvg speedWind from/ knotsBaromVisibWave heightAir tempDewpointWater temp
2016-May-04 21:18N 40°03' E 024°54'1621.5
2016-May-04 20:33N 40°17' E 024°43'2121.5
2016-May-04 19:34N 40°36' E 024°30'2019.9
2016-May-04 18:33N 40°56' E 024°25'0 0.0
2016-May-04 17:33N 40°56' E 024°25'0 0.0
2016-May-04 16:34N 40°56' E 024°25'7 6.5
2016-May-04 15:34N 40°49' E 024°26'2323.5
2016-May-04 14:34N 40°27' E 024°36'2624.0
2016-May-04 13:29N 40°05' E 024°53'161 9.0
2016-May-03 19:33N 37°29' E 025°40'1717.5
2016-May-03 18:33N 37°28' E 025°19'1211.7
2016-May-03 17:34N 37°27' E 025°04'1212.3
2016-May-03 16:33N 37°32' E 024°49'4220.8
2016-May-03 14:33N 37°34' E 023°57'2020.4
2016-May-03 13:34N 37°48' E 023°38'9 8.3
2016-May-03 12:31N 37°57' E 023°38'0 0.0
2016-May-03 11:32N 37°57' E 023°38'0 0.0
2016-May-03 10:32N 37°57' E 023°38'0 0.0
2016-May-03 09:33N 37°57' E 023°38'0 0.0
2016-May-03 08:31N 37°57' E 023°38'0 0.0
2016-May-03 07:31N 37°57' E 023°38'0 0.0
2016-May-03 06:32N 37°57' E 023°38'0 0.0
2016-May-03 05:33N 37°57' E 023°38'0 0.0
2016-May-03 04:33N 37°57' E 023°38'0 0.0
2016-May-03 03:31N 37°57' E 023°38'0 0.0
2016-May-03 02:32N 37°57' E 023°38'0 0.0
2016-May-03 01:32N 37°57' E 023°38'0 0.0
2016-May-03 00:33N 37°57' E 023°38'0 0.0
2016-May-02 23:31N 37°57' E 023°38'0 0.0
2016-May-02 22:31N 37°57' E 023°38'0 0.0
2016-May-02 21:32N 37°57' E 023°38'0 0.0
2016-May-02 20:33N 37°57' E 023°38'1514.6
2016-May-02 19:33N 37°43' E 023°45'2423.8
2016-May-02 18:33N 37°33' E 024°11'2623.8
2016-May-02 17:28N 37°31' E 024°44'1212.2
2016-May-02 16:29N 37°26' E 024°58'1717.6
2016-May-02 15:30N 37°28' E 025°19'1415.0
2016-May-02 14:33N 37°34' E 025°36'148 8.2
2016-May-01 20:33N 39°58' E 024°57'2121.3
2016-May-01 19:33N 40°17' E 024°43'2221.6
2016-May-01 18:33N 40°36' E 024°30'2016.6
2016-May-01 17:20N 40°56' E 024°25'0 0.0
2016-May-01 15:18N 40°56' E 024°25'0 0.0
2016-May-01 14:31N 40°56' E 024°25'0 0.0
2016-May-01 13:31N 40°56' E 024°25'0 0.0
2016-May-01 12:32N 40°56' E 024°25'0 0.0
2016-May-01 11:33N 40°56' E 024°25'0 0.0
2016-May-01 10:33N 40°56' E 024°25'0 0.0
2016-May-01 09:28N 40°56' E 024°25'0 0.0
2016-May-01 08:29N 40°56' E 024°25'0 0.0
2016-May-01 07:29N 40°56' E 024°25'0 0.0
2016-Apr-30 23:05N 40°56' E 024°25'0 0.0
2016-Apr-30 22:32N 40°56' E 024°25'0 0.0
2016-Apr-30 21:33N 40°56' E 024°25'0 0.0
2016-Apr-30 20:28N 40°56' E 024°25'0 0.0
2016-Apr-30 19:23N 40°56' E 024°25'0 0.0
2016-Apr-30 18:29N 40°56' E 024°25'0 0.0
2016-Apr-30 16:32N 40°56' E 024°25'0 0.0
2016-Apr-30 15:33N 40°56' E 024°25'2120.7
2016-Apr-30 14:34N 40°36' E 024°30'2424.4
2016-Apr-30 13:33N 40°14' E 024°45'167 9.7
2016-Apr-29 20:24N 37°39' E 026°02'1821.4
2016-Apr-29 19:33N 37°34' E 025°39'1817.8
2016-Apr-29 18:33N 37°27' E 025°19'1615.6
2016-Apr-29 17:33N 37°26' E 024°60'9 9.3
2016-Apr-29 16:33N 37°32' E 024°50'4220.7
2016-Apr-29 14:31N 37°36' E 023°57'1919.7
2016-Apr-29 13:34N 37°48' E 023°38'9 9.0
2016-Apr-29 12:33N 37°57' E 023°38'0 0.0
2016-Apr-29 11:33N 37°57' E 023°38'3 2.9
2016-Apr-29 10:33N 37°54' E 023°38'2323.1
2016-Apr-29 09:34N 37°37' E 023°58'4823.8
2016-Apr-29 07:33N 37°29' E 024°57'1515.1
2016-Apr-29 06:33N 37°28' E 025°16'1717.0
2016-Apr-29 05:33N 37°34' E 025°36'2424.4
2016-Apr-29 04:33N 37°39' E 026°06'17 2.3
2016-Apr-28 21:12N 37°44' E 026°27'1413.1
2016-Apr-28 20:07N 37°39' E 026°10'1424.2
2016-Apr-28 19:33N 37°37' E 025°53'2424.4
2016-Apr-28 18:33N 37°31' E 025°23'1313.1
2016-Apr-28 17:34N 37°27' E 025°08'1512.5
2016-Apr-28 16:21N 37°32' E 024°49'4323.5
2016-Apr-28 14:32N 37°36' E 023°56'2121.6
2016-Apr-28 13:34N 37°51' E 023°37'6 5.6
2016-Apr-28 12:33N 37°57' E 023°38'0 0.0
2016-Apr-28 11:33N 37°57' E 023°38'0 0.0
2016-Apr-28 10:33N 37°57' E 023°38'0 0.0
2016-Apr-28 09:33N 37°57' E 023°38'0 0.0
2016-Apr-28 08:33N 37°57' E 023°38'0 0.0
2016-Apr-28 07:33N 37°57' E 023°38'0 0.0
2016-Apr-28 06:33N 37°57' E 023°38'0 0.0
2016-Apr-28 05:33N 37°57' E 023°38'0 0.0
2016-Apr-28 04:33N 37°57' E 023°38'0 0.0
2016-Apr-28 03:33N 37°57' E 023°38'0 0.0
2016-Apr-28 02:33N 37°57' E 023°38'0 0.0
2016-Apr-28 01:33N 37°57' E 023°38'0 0.0
2016-Apr-28 00:33N 37°57' E 023°38'0 0.0
2016-Apr-27 23:33N 37°57' E 023°38'0 0.0
2016-Apr-27 22:33N 37°57' E 023°38'0 0.0
2016-Apr-27 21:33N 37°57' E 023°38'0 0.0
2016-Apr-27 20:33N 37°57' E 023°38'1211.6
2016-Apr-27 19:34N 37°46' E 023°43'2423.3
2016-Apr-27 18:31N 37°33' E 024°09'2324.0
2016-Apr-27 17:33N 37°31' E 024°38'1613.9
2016-Apr-27 16:23N 37°26' E 024°58'1720.9
2016-Apr-27 15:33N 37°28' E 025°19'1212.2
2016-Apr-27 14:33N 37°30' E 025°35'155 9.0
2016-Apr-26 21:22N 40°02' E 024°54'1721.0
2016-Apr-26 20:33N 40°17' E 024°44'2321.4
2016-Apr-26 19:28N 40°38' E 024°30'1920.7
2016-Apr-26 18:33N 40°56' E 024°24'0 0.1
2016-Apr-26 17:27N 40°56' E 024°25'0 0.0
2016-Apr-26 16:33N 40°56' E 024°25'0 0.0
2016-Apr-26 15:33N 40°56' E 024°25'1919.3
2016-Apr-26 14:34N 40°37' E 024°28'2221.8
2016-Apr-26 13:33N 40°17' E 024°42'17710.1
2016-Apr-25 20:04N 37°30' E 025°55'1224.0
2016-Apr-25 19:33N 37°31' E 025°40'1716.7
2016-Apr-25 18:34N 37°28' E 025°19'1717.3
2016-Apr-25 17:33N 37°26' E 024°58'1111.0
2016-Apr-25 16:34N 37°32' E 024°46'4220.7
2016-Apr-25 14:33N 37°37' E 023°54'1918.8
2016-Apr-25 13:34N 37°51' E 023°37'6 5.9
2016-Apr-25 12:33N 37°57' E 023°38'0 0.0
2016-Apr-25 11:33N 37°57' E 023°38'0 0.0
2016-Apr-25 10:33N 37°57' E 023°38'0 0.0
2016-Apr-25 09:33N 37°57' E 023°38'0 0.0
2016-Apr-25 08:33N 37°57' E 023°38'0 0.0
2016-Apr-25 07:33N 37°57' E 023°38'0 0.0
2016-Apr-25 06:32N 37°57' E 023°38'0 0.0
2016-Apr-25 05:17N 37°57' E 023°38'0 0.0
2016-Apr-25 04:33N 37°57' E 023°38'0 0.0
2016-Apr-25 03:33N 37°57' E 023°38'0 0.0
2016-Apr-25 02:33N 37°57' E 023°38'0 0.0
2016-Apr-25 01:33N 37°57' E 023°38'0 0.0
2016-Apr-25 00:33N 37°57' E 023°38'0 0.0
2016-Apr-24 23:33N 37°57' E 023°38'0 0.0
2016-Apr-24 22:33N 37°57' E 023°38'0 0.0
2016-Apr-24 21:33N 37°57' E 023°38'  

Dump ship's entire track history